Advance, IN

4:38 PM EDT on August 31, 2015 (GMT -0400)
Ash Street | | Change Station
CLOSE
Current Station
Personal Weather Station
Location: Jamestown, IN
Elevation: 974 ft
Nearby Weather Stations

Elev 974 ft 39.93 °N, 86.63 °W | Updated 3 minutes ago

Partly Cloudy
Partly Cloudy
87.2 °F
Feels Like 93 °F
N
4.0
Wind Variable Wind from NNE
Gusts 8.0 mph

Today
High -- | Low -- °F
--% Chance of Precip.
Yesterday
High -- | Low -- °F
Precip. -- in
7:13 AM 8:19 PM
Waning Gibbous, 94% visible
Pressure 30.08 in
Visibility 10.0 miles
Clouds Scattered Clouds 4400 ft
Heat Index 93 °F
Dew Point 71 °F
Humidity 59%
Rainfall 0.00 in
Snow Depth Not available.
UV 5 out of 12
Pollen 10.80 out of 12
Air Quality Not available.
Flu Activity Not available.
METAR KTYQ 312015Z AUTO 21006KT 10SM SCT044 30/19 A3008 RMK AO2 T03030186
Pressure 30.08 in
Visibility 10.0 miles
Clouds Scattered Clouds 4400 ft
Heat Index 93 °F
Dew Point 71 °F
Humidity 59%
Rainfall 0.00 in
Snow Depth Not available.
UV 5 out of 12
Pollen 10.80 out of 12
Air Quality Not available.
Flu Activity Not available.
METAR KTYQ 312015Z AUTO 21006KT 10SM SCT044 30/19 A3008 RMK AO2 T03030186

10-Day Weather Forecast

×

Almanac

Astronomy

Aug. 31, 2015 Rise Set
Actual Time
Civil Twilight
Nautical Twilight
Astronomical Twilight
Moon
Length of Visible Light
Length of Day
Tomorrow will be .
, % of the Moon is Illuminated

Today's Extremes

State Highs State Lows

Community

WunderPhotos

Upload Photos

1,851,357 photos uploaded!

WunderBlogs® & News

Nearby

Air Quality

  Air Quality AQ Index Pollutant
Not available.

Snow Depth

Station Depth Elevation

Earthquake Activity

City Distance Mag. Time & Date
Minimum magnitude displayed is 2.5.

Coastal Water Temperatures

Place Temperature

Stations

Nearby Weather Stations

Station Location Temp. Windchill Dew Point Humidity Wind Precip. Elev Updated Type